Myra, West Virginia
Current Conditions -  °F | °C
As of 10:51 AM on Monday 24 Nov 2014 (Local Time) from KHTS Reporting Station
Overcast Overcast  
Wind Chill: 19°   Ceiling: 6500
Heat Index: 19°   Visibility: 10mi
Dew Point:   Wind: 23mph
Humidity: 47%   Direction: 210°SSW
Pressure: 29.5"   Gusts: 37mph
Location:  38.22°N, 82.11°W
Report Text: KHTS 241551Z 21020G32KT 10SM BKN065 OVC080 19/08 A2950 RMK AO2 PK WND 22035/1454 SLP983 T01940078
Loading
Personal Weather Stations






























Interactive Weather Map New forecast layout! Learn more

10-Day Weather Forecast

Advertisements
Track Severe Weather on mobile